sensor_id;sensor_type;location;lat;lon;timestamp;pressure;altitude;pressure_sealevel;temperature;humidity
21574;BME280;10948;48.706;9.258;2023-04-30T00:01:57;98022.66;;;14.69;92.54
21574;BME280;10948;48.706;9.258;2023-04-30T00:04:22;98033.22;;;14.44;93.53
21574;BME280;10948;48.706;9.258;2023-04-30T00:06:48;98034.97;;;14.56;94.13
21574;BME280;10948;48.706;9.258;2023-04-30T00:09:14;98036.34;;;14.49;94.16
21574;BME280;10948;48.706;9.258;2023-04-30T00:11:39;98034.66;;;14.48;95.14
21574;BME280;10948;48.706;9.258;2023-04-30T00:14:04;98047.88;;;14.34;95.19
21574;BME280;10948;48.706;9.258;2023-04-30T00:16:29;98043.78;;;14.42;96.12
21574;BME280;10948;48.706;9.258;2023-04-30T00:18:55;98040.53;;;14.39;97.06
21574;BME280;10948;48.706;9.258;2023-04-30T00:21:20;98034.88;;;14.45;96.00
21574;BME280;10948;48.706;9.258;2023-04-30T00:23:45;98041.88;;;14.44;96.69
21574;BME280;10948;48.706;9.258;2023-04-30T00:26:10;98036.03;;;14.41;97.22
21574;BME280;10948;48.706;9.258;2023-04-30T00:28:35;98041.16;;;14.42;97.82
21574;BME280;10948;48.706;9.258;2023-04-30T00:31:00;98038.56;;;14.42;97.18
21574;BME280;10948;48.706;9.258;2023-04-30T00:33:26;98031.25;;;14.22;98.31
21574;BME280;10948;48.706;9.258;2023-04-30T00:35:51;98035.22;;;14.28;99.13
21574;BME280;10948;48.706;9.258;2023-04-30T00:38:17;98032.41;;;14.31;98.94
21574;BME280;10948;48.706;9.258;2023-04-30T00:40:42;98035.63;;;14.34;98.76
21574;BME280;10948;48.706;9.258;2023-04-30T00:43:07;98039.53;;;14.29;98.56
21574;BME280;10948;48.706;9.258;2023-04-30T00:45:32;98035.75;;;14.33;98.37
21574;BME280;10948;48.706;9.258;2023-04-30T00:47:58;98042.44;;;14.37;97.70
21574;BME280;10948;48.706;9.258;2023-04-30T00:50:23;98039.97;;;14.23;98.20
21574;BME280;10948;48.706;9.258;2023-04-30T00:52:49;98040.34;;;14.17;98.55
21574;BME280;10948;48.706;9.258;2023-04-30T00:55:14;98048.53;;;14.25;98.48
21574;BME280;10948;48.706;9.258;2023-04-30T00:57:40;98045.59;;;14.17;98.12
21574;BME280;10948;48.706;9.258;2023-04-30T01:00:05;98048.22;;;14.17;98.08
21574;BME280;10948;48.706;9.258;2023-04-30T01:02:34;98041.59;;;14.11;97.63
21574;BME280;10948;48.706;9.258;2023-04-30T01:05:00;98040.97;;;14.08;98.47
21574;BME280;10948;48.706;9.258;2023-04-30T01:07:26;98038.06;;;14.12;96.54
21574;BME280;10948;48.706;9.258;2023-04-30T01:09:52;98041.84;;;13.96;96.97
21574;BME280;10948;48.706;9.258;2023-04-30T01:14:53;98040.28;;;13.93;96.78
21574;BME280;10948;48.706;9.258;2023-04-30T01:17:29;98046.66;;;13.89;95.63
21574;BME280;10948;48.706;9.258;2023-04-30T01:19:56;98039.34;;;13.94;95.99
21574;BME280;10948;48.706;9.258;2023-04-30T01:22:29;98033.66;;;13.88;96.42
21574;BME280;10948;48.706;9.258;2023-04-30T01:27:51;98035.34;;;14.01;97.08
21574;BME280;10948;48.706;9.258;2023-04-30T01:30:23;98028.25;;;13.91;97.24
21574;BME280;10948;48.706;9.258;2023-04-30T01:32:49;98032.53;;;13.92;97.96
21574;BME280;10948;48.706;9.258;2023-04-30T01:35:14;98035.16;;;13.92;97.71
21574;BME280;10948;48.706;9.258;2023-04-30T01:37:47;98029.59;;;13.84;98.41
21574;BME280;10948;48.706;9.258;2023-04-30T01:40:32;98026.34;;;13.93;97.67
21574;BME280;10948;48.706;9.258;2023-04-30T01:43:08;98024.16;;;13.87;97.92
21574;BME280;10948;48.706;9.258;2023-04-30T01:50:48;98029.59;;;13.84;97.75
21574;BME280;10948;48.706;9.258;2023-04-30T01:53:17;98033.56;;;13.89;97.48
21574;BME280;10948;48.706;9.258;2023-04-30T01:55:55;98043.41;;;13.86;97.03
21574;BME280;10948;48.706;9.258;2023-04-30T01:58:21;98044.06;;;13.77;98.27
21574;BME280;10948;48.706;9.258;2023-04-30T02:00:47;98041.81;;;13.58;98.60
21574;BME280;10948;48.706;9.258;2023-04-30T02:03:13;98032.34;;;13.70;96.84
21574;BME280;10948;48.706;9.258;2023-04-30T02:05:38;98033.78;;;13.74;96.64
21574;BME280;10948;48.706;9.258;2023-04-30T02:08:03;98033.28;;;13.69;96.72
21574;BME280;10948;48.706;9.258;2023-04-30T02:10:29;98036.00;;;13.67;96.45
21574;BME280;10948;48.706;9.258;2023-04-30T02:12:54;98035.78;;;13.83;96.54
21574;BME280;10948;48.706;9.258;2023-04-30T02:15:20;98037.34;;;13.73;96.56
21574;BME280;10948;48.706;9.258;2023-04-30T02:17:45;98034.72;;;13.60;97.89
21574;BME280;10948;48.706;9.258;2023-04-30T02:20:10;98037.03;;;13.65;98.03
21574;BME280;10948;48.706;9.258;2023-04-30T02:22:36;98041.75;;;13.72;97.29
21574;BME280;10948;48.706;9.258;2023-04-30T02:25:01;98040.81;;;13.73;97.74
21574;BME280;10948;48.706;9.258;2023-04-30T02:27:28;98034.72;;;13.73;97.43
21574;BME280;10948;48.706;9.258;2023-04-30T02:29:54;98037.66;;;13.68;97.88
21574;BME280;10948;48.706;9.258;2023-04-30T02:32:20;98033.47;;;13.66;99.00
21574;BME280;10948;48.706;9.258;2023-04-30T02:34:45;98031.38;;;13.71;98.23
21574;BME280;10948;48.706;9.258;2023-04-30T02:37:10;98030.66;;;13.69;98.47
21574;BME280;10948;48.706;9.258;2023-04-30T02:39:36;98029.81;;;13.56;98.88
21574;BME280;10948;48.706;9.258;2023-04-30T02:42:01;98033.06;;;13.59;99.96
21574;BME280;10948;48.706;9.258;2023-04-30T02:44:27;98035.97;;;13.55;100.00
21574;BME280;10948;48.706;9.258;2023-04-30T02:46:52;98042.38;;;13.51;100.00
21574;BME280;10948;48.706;9.258;2023-04-30T02:49:17;98037.66;;;13.56;100.00
21574;BME280;10948;48.706;9.258;2023-04-30T02:51:42;98031.91;;;13.51;100.00
21574;BME280;10948;48.706;9.258;2023-04-30T02:54:08;98033.56;;;13.52;100.00
21574;BME280;10948;48.706;9.258;2023-04-30T02:56:33;98032.00;;;13.49;99.42
21574;BME280;10948;48.706;9.258;2023-04-30T02:58:59;98036.81;;;13.55;98.01
21574;BME280;10948;48.706;9.258;2023-04-30T03:01:24;98029.47;;;13.48;98.83
21574;BME280;10948;48.706;9.258;2023-04-30T03:03:49;98036.41;;;13.49;98.67
21574;BME280;10948;48.706;9.258;2023-04-30T03:06:15;98030.97;;;13.52;99.03
21574;BME280;10948;48.706;9.258;2023-04-30T03:08:40;98028.03;;;13.44;99.91
21574;BME280;10948;48.706;9.258;2023-04-30T03:11:05;98038.88;;;13.38;100.00
21574;BME280;10948;48.706;9.258;2023-04-30T03:13:30;98046.81;;;13.24;100.00
21574;BME280;10948;48.706;9.258;2023-04-30T03:15:59;98036.81;;;13.43;100.00
21574;BME280;10948;48.706;9.258;2023-04-30T03:18:28;98038.75;;;13.27;100.00
21574;BME280;10948;48.706;9.258;2023-04-30T03:20:53;98039.56;;;13.15;100.00
21574;BME280;10948;48.706;9.258;2023-04-30T03:23:18;98036.22;;;13.13;100.00
21574;BME280;10948;48.706;9.258;2023-04-30T03:25:43;98045.53;;;13.17;100.00
21574;BME280;10948;48.706;9.258;2023-04-30T03:28:09;98037.41;;;13.21;100.00
21574;BME280;10948;48.706;9.258;2023-04-30T03:30:34;98030.38;;;13.22;100.00
21574;BME280;10948;48.706;9.258;2023-04-30T03:32:59;98027.56;;;13.12;100.00
21574;BME280;10948;48.706;9.258;2023-04-30T03:35:25;98028.19;;;13.16;100.00
21574;BME280;10948;48.706;9.258;2023-04-30T03:37:50;98036.75;;;13.18;100.00
21574;BME280;10948;48.706;9.258;2023-04-30T03:40:15;98026.94;;;13.09;100.00
21574;BME280;10948;48.706;9.258;2023-04-30T03:42:41;98036.13;;;13.14;100.00
21574;BME280;10948;48.706;9.258;2023-04-30T03:45:06;98027.72;;;12.97;100.00
21574;BME280;10948;48.706;9.258;2023-04-30T03:47:31;98034.00;;;13.07;100.00
21574;BME280;10948;48.706;9.258;2023-04-30T03:49:57;98029.09;;;13.15;100.00
21574;BME280;10948;48.706;9.258;2023-04-30T03:52:23;98028.78;;;13.07;100.00
21574;BME280;10948;48.706;9.258;2023-04-30T03:54:48;98021.03;;;13.05;100.00
21574;BME280;10948;48.706;9.258;2023-04-30T03:57:13;98020.41;;;13.02;100.00
21574;BME280;10948;48.706;9.258;2023-04-30T03:59:39;98026.06;;;12.96;100.00
21574;BME280;10948;48.706;9.258;2023-04-30T04:02:04;98018.72;;;13.01;100.00
21574;BME280;10948;48.706;9.258;2023-04-30T04:04:30;98025.63;;;13.02;100.00
21574;BME280;10948;48.706;9.258;2023-04-30T04:06:55;98028.72;;;12.94;100.00
21574;BME280;10948;48.706;9.258;2023-04-30T04:09:21;98029.97;;;12.89;100.00
21574;BME280;10948;48.706;9.258;2023-04-30T04:11:46;98034.81;;;12.95;100.00
21574;BME280;10948;48.706;9.258;2023-04-30T04:14:11;98032.72;;;13.00;100.00
21574;BME280;10948;48.706;9.258;2023-04-30T04:16:36;98030.16;;;12.86;100.00
21574;BME280;10948;48.706;9.258;2023-04-30T04:19:02;98033.94;;;12.94;100.00
21574;BME280;10948;48.706;9.258;2023-04-30T04:21:28;98039.84;;;12.98;100.00
21574;BME280;10948;48.706;9.258;2023-04-30T04:23:53;98039.19;;;12.94;100.00
21574;BME280;10948;48.706;9.258;2023-04-30T04:26:19;98045.16;;;12.96;100.00
21574;BME280;10948;48.706;9.258;2023-04-30T04:28:45;98041.38;;;12.74;100.00
21574;BME280;10948;48.706;9.258;2023-04-30T04:31:11;98041.50;;;12.99;100.00
21574;BME280;10948;48.706;9.258;2023-04-30T04:33:37;98041.25;;;12.89;100.00
21574;BME280;10948;48.706;9.258;2023-04-30T04:36:02;98037.41;;;12.95;100.00
21574;BME280;10948;48.706;9.258;2023-04-30T04:38:28;98037.00;;;12.74;100.00
21574;BME280;10948;48.706;9.258;2023-04-30T04:40:53;98041.34;;;12.88;100.00
21574;BME280;10948;48.706;9.258;2023-04-30T04:43:18;98047.94;;;12.93;100.00
21574;BME280;10948;48.706;9.258;2023-04-30T04:45:44;98050.06;;;13.01;100.00
21574;BME280;10948;48.706;9.258;2023-04-30T04:48:09;98049.91;;;13.04;100.00
21574;BME280;10948;48.706;9.258;2023-04-30T04:50:34;98049.50;;;13.10;100.00
21574;BME280;10948;48.706;9.258;2023-04-30T04:53:00;98058.06;;;13.12;100.00
21574;BME280;10948;48.706;9.258;2023-04-30T04:55:25;98054.97;;;13.19;99.45
21574;BME280;10948;48.706;9.258;2023-04-30T04:57:51;98053.16;;;13.20;98.86
21574;BME280;10948;48.706;9.258;2023-04-30T05:00:16;98047.06;;;13.07;99.46
21574;BME280;10948;48.706;9.258;2023-04-30T05:02:42;98054.13;;;13.19;99.61
21574;BME280;10948;48.706;9.258;2023-04-30T05:05:07;98048.28;;;13.28;98.00
21574;BME280;10948;48.706;9.258;2023-04-30T05:07:33;98045.16;;;13.23;97.53
21574;BME280;10948;48.706;9.258;2023-04-30T05:09:59;98048.28;;;13.28;97.71
21574;BME280;10948;48.706;9.258;2023-04-30T05:12:24;98051.25;;;13.36;96.53
21574;BME280;10948;48.706;9.258;2023-04-30T05:14:49;98053.84;;;13.36;96.08
21574;BME280;10948;48.706;9.258;2023-04-30T05:17:15;98055.13;;;13.43;95.79
21574;BME280;10948;48.706;9.258;2023-04-30T05:19:40;98061.94;;;13.58;95.11
21574;BME280;10948;48.706;9.258;2023-04-30T05:22:05;98054.31;;;13.67;94.98
21574;BME280;10948;48.706;9.258;2023-04-30T05:24:31;98056.16;;;13.53;95.00
21574;BME280;10948;48.706;9.258;2023-04-30T05:26:56;98054.84;;;13.72;94.47
21574;BME280;10948;48.706;9.258;2023-04-30T05:29:21;98054.84;;;13.72;93.78
21574;BME280;10948;48.706;9.258;2023-04-30T05:31:47;98063.19;;;13.77;92.84
21574;BME280;10948;48.706;9.258;2023-04-30T05:34:12;98049.78;;;13.57;93.94
21574;BME280;10948;48.706;9.258;2023-04-30T05:36:37;98054.38;;;13.78;93.15
21574;BME280;10948;48.706;9.258;2023-04-30T05:39:02;98056.72;;;13.83;92.19
21574;BME280;10948;48.706;9.258;2023-04-30T05:41:30;98051.25;;;13.98;92.00
21574;BME280;10948;48.706;9.258;2023-04-30T05:43:55;98053.75;;;13.75;92.43
21574;BME280;10948;48.706;9.258;2023-04-30T05:46:20;98053.97;;;13.84;91.77
21574;BME280;10948;48.706;9.258;2023-04-30T05:48:46;98046.22;;;14.08;91.74
21574;BME280;10948;48.706;9.258;2023-04-30T05:51:12;98047.06;;;14.21;90.68
21574;BME280;10948;48.706;9.258;2023-04-30T05:53:37;98050.41;;;14.35;89.28
21574;BME280;10948;48.706;9.258;2023-04-30T05:56:02;98048.72;;;14.34;87.77
21574;BME280;10948;48.706;9.258;2023-04-30T05:58:27;98049.59;;;14.10;88.28
21574;BME280;10948;48.706;9.258;2023-04-30T06:00:53;98051.44;;;14.33;87.78
21574;BME280;10948;48.706;9.258;2023-04-30T06:03:18;98054.22;;;14.55;87.10
21574;BME280;10948;48.706;9.258;2023-04-30T06:05:44;98062.19;;;14.89;85.60
21574;BME280;10948;48.706;9.258;2023-04-30T06:08:09;98057.03;;;15.11;83.63
21574;BME280;10948;48.706;9.258;2023-04-30T06:10:34;98059.28;;;14.81;83.96
21574;BME280;10948;48.706;9.258;2023-04-30T06:13:00;98057.09;;;14.99;84.14
21574;BME280;10948;48.706;9.258;2023-04-30T06:15:25;98051.28;;;15.30;82.48
21574;BME280;10948;48.706;9.258;2023-04-30T06:17:50;98052.88;;;15.78;79.46
21574;BME280;10948;48.706;9.258;2023-04-30T06:20:15;98051.94;;;16.01;77.13
21574;BME280;10948;48.706;9.258;2023-04-30T06:22:41;98054.81;;;15.98;76.17
21574;BME280;10948;48.706;9.258;2023-04-30T06:25:06;98049.31;;;16.34;75.03
21574;BME280;10948;48.706;9.258;2023-04-30T06:27:32;98057.31;;;16.21;74.85
21574;BME280;10948;48.706;9.258;2023-04-30T06:29:57;98051.25;;;16.32;74.17
21574;BME280;10948;48.706;9.258;2023-04-30T06:32:24;98054.72;;;17.08;71.29
21574;BME280;10948;48.706;9.258;2023-04-30T06:34:49;98055.91;;;17.14;70.15
21574;BME280;10948;48.706;9.258;2023-04-30T06:37:15;98054.97;;;17.67;67.94
21574;BME280;10948;48.706;9.258;2023-04-30T06:39:40;98056.41;;;17.40;67.30
21574;BME280;10948;48.706;9.258;2023-04-30T06:42:05;98059.69;;;17.73;66.28
21574;BME280;10948;48.706;9.258;2023-04-30T06:44:30;98058.13;;;17.91;65.99
21574;BME280;10948;48.706;9.258;2023-04-30T06:46:57;98058.19;;;17.80;65.18
21574;BME280;10948;48.706;9.258;2023-04-30T06:49:22;98062.03;;;18.17;64.90
21574;BME280;10948;48.706;9.258;2023-04-30T06:51:49;98055.38;;;18.43;62.81
21574;BME280;10948;48.706;9.258;2023-04-30T06:54:14;98056.28;;;18.72;61.96
21574;BME280;10948;48.706;9.258;2023-04-30T06:56:40;98066.22;;;17.99;63.02
21574;BME280;10948;48.706;9.258;2023-04-30T06:59:05;98059.91;;;17.81;63.14
21574;BME280;10948;48.706;9.258;2023-04-30T07:01:30;98067.38;;;17.65;63.11
21574;BME280;10948;48.706;9.258;2023-04-30T07:03:56;98068.88;;;18.29;62.29
21574;BME280;10948;48.706;9.258;2023-04-30T07:06:21;98057.44;;;18.19;61.35
21574;BME280;10948;48.706;9.258;2023-04-30T07:08:46;98062.56;;;18.32;60.81
21574;BME280;10948;48.706;9.258;2023-04-30T07:11:12;98052.56;;;18.35;60.41
21574;BME280;10948;48.706;9.258;2023-04-30T07:13:37;98043.06;;;19.59;57.66
21574;BME280;10948;48.706;9.258;2023-04-30T07:16:03;98044.16;;;19.09;58.35
21574;BME280;10948;48.706;9.258;2023-04-30T07:18:28;98044.59;;;19.52;56.78
21574;BME280;10948;48.706;9.258;2023-04-30T07:20:54;98043.41;;;20.12;55.18
21574;BME280;10948;48.706;9.258;2023-04-30T07:23:19;98059.38;;;20.01;55.74
21574;BME280;10948;48.706;9.258;2023-04-30T07:25:45;98050.06;;;22.53;50.54
21574;BME280;10948;48.706;9.258;2023-04-30T07:28:10;98046.78;;;24.60;47.62
21574;BME280;10948;48.706;9.258;2023-04-30T07:30:35;98054.41;;;24.63;45.11
21574;BME280;10948;48.706;9.258;2023-04-30T07:33:00;98046.63;;;25.22;44.13
21574;BME280;10948;48.706;9.258;2023-04-30T07:35:26;98053.31;;;24.88;44.67
21574;BME280;10948;48.706;9.258;2023-04-30T07:37:51;98047.19;;;25.63;44.26
21574;BME280;10948;48.706;9.258;2023-04-30T07:40:16;98054.25;;;21.44;48.64
21574;BME280;10948;48.706;9.258;2023-04-30T07:42:41;98048.66;;;25.43;43.43
21574;BME280;10948;48.706;9.258;2023-04-30T07:45:07;98050.34;;;25.89;42.54
21574;BME280;10948;48.706;9.258;2023-04-30T07:47:32;98038.25;;;23.70;42.65
21574;BME280;10948;48.706;9.258;2023-04-30T07:49:58;98050.31;;;25.44;42.77
21574;BME280;10948;48.706;9.258;2023-04-30T07:52:23;98036.25;;;23.72;42.51
21574;BME280;10948;48.706;9.258;2023-04-30T07:54:48;98042.50;;;21.46;47.53
21574;BME280;10948;48.706;9.258;2023-04-30T07:57:14;98032.56;;;23.17;44.29
21574;BME280;10948;48.706;9.258;2023-04-30T07:59:39;98030.44;;;24.55;44.14
21574;BME280;10948;48.706;9.258;2023-04-30T08:02:04;98037.84;;;21.83;46.94
21574;BME280;10948;48.706;9.258;2023-04-30T08:04:30;98034.94;;;24.54;43.98
21574;BME280;10948;48.706;9.258;2023-04-30T08:06:55;98034.56;;;22.40;45.69
21574;BME280;10948;48.706;9.258;2023-04-30T08:09:21;98037.25;;;23.95;44.53
21574;BME280;10948;48.706;9.258;2023-04-30T08:11:47;98038.13;;;24.50;43.00
21574;BME280;10948;48.706;9.258;2023-04-30T08:14:13;98040.91;;;24.02;44.43
21574;BME280;10948;48.706;9.258;2023-04-30T08:16:38;98034.56;;;27.18;39.71
21574;BME280;10948;48.706;9.258;2023-04-30T08:19:03;98035.44;;;24.66;42.14
21574;BME280;10948;48.706;9.258;2023-04-30T08:21:29;98038.41;;;23.45;43.97
21574;BME280;10948;48.706;9.258;2023-04-30T08:23:54;98036.88;;;21.84;47.56
21574;BME280;10948;48.706;9.258;2023-04-30T08:26:21;98047.38;;;21.33;47.17
21574;BME280;10948;48.706;9.258;2023-04-30T08:28:47;98037.63;;;21.59;47.45
21574;BME280;10948;48.706;9.258;2023-04-30T08:31:12;98033.44;;;22.84;46.13
21574;BME280;10948;48.706;9.258;2023-04-30T08:33:37;98041.34;;;21.84;46.90
21574;BME280;10948;48.706;9.258;2023-04-30T08:36:04;98036.06;;;22.76;45.84
21574;BME280;10948;48.706;9.258;2023-04-30T08:38:29;98037.13;;;22.50;46.15
21574;BME280;10948;48.706;9.258;2023-04-30T08:41:02;98037.13;;;21.21;47.38
21574;BME280;10948;48.706;9.258;2023-04-30T08:43:28;98042.13;;;21.06;48.46
21574;BME280;10948;48.706;9.258;2023-04-30T08:45:54;98042.38;;;20.86;49.10
21574;BME280;10948;48.706;9.258;2023-04-30T08:48:20;98032.72;;;20.67;49.65
21574;BME280;10948;48.706;9.258;2023-04-30T08:50:47;98036.09;;;20.60;49.60
21574;BME280;10948;48.706;9.258;2023-04-30T08:53:12;98032.16;;;20.00;50.28
21574;BME280;10948;48.706;9.258;2023-04-30T08:55:39;98035.47;;;20.12;49.99
21574;BME280;10948;48.706;9.258;2023-04-30T08:58:06;98038.38;;;20.09;49.73
21574;BME280;10948;48.706;9.258;2023-04-30T09:00:32;98036.66;;;19.62;50.84
21574;BME280;10948;48.706;9.258;2023-04-30T09:02:59;98035.13;;;19.59;50.74
21574;BME280;10948;48.706;9.258;2023-04-30T09:05:24;98040.84;;;20.29;50.01
21574;BME280;10948;48.706;9.258;2023-04-30T09:07:50;98031.84;;;20.76;48.87
21574;BME280;10948;48.706;9.258;2023-04-30T09:10:19;98037.38;;;19.73;49.73
21574;BME280;10948;48.706;9.258;2023-04-30T09:13:38;98029.81;;;19.78;50.65
21574;BME280;10948;48.706;9.258;2023-04-30T09:15:33;98036.94;;;19.78;50.72
21574;BME280;10948;48.706;9.258;2023-04-30T09:20:33;98036.41;;;19.36;50.24
21574;BME280;10948;48.706;9.258;2023-04-30T09:23:06;98025.84;;;19.55;49.96
21574;BME280;10948;48.706;9.258;2023-04-30T09:25:41;98027.75;;;19.63;50.17
21574;BME280;10948;48.706;9.258;2023-04-30T09:28:07;98042.53;;;19.27;50.56
21574;BME280;10948;48.706;9.258;2023-04-30T09:30:32;98036.22;;;18.90;50.56
21574;BME280;10948;48.706;9.258;2023-04-30T09:32:58;98042.16;;;18.83;51.56
21574;BME280;10948;48.706;9.258;2023-04-30T09:35:34;98044.41;;;18.87;51.95
21574;BME280;10948;48.706;9.258;2023-04-30T09:38:00;98037.59;;;19.13;51.53
21574;BME280;10948;48.706;9.258;2023-04-30T09:40:36;98034.44;;;19.00;51.95
21574;BME280;10948;48.706;9.258;2023-04-30T09:43:01;98030.66;;;18.84;51.39
21574;BME280;10948;48.706;9.258;2023-04-30T09:45:37;98032.13;;;18.58;52.24
21574;BME280;10948;48.706;9.258;2023-04-30T09:48:03;98035.47;;;18.69;53.13
21574;BME280;10948;48.706;9.258;2023-04-30T09:50:31;98036.66;;;19.14;51.56
21574;BME280;10948;48.706;9.258;2023-04-30T09:53:04;98031.13;;;19.36;50.96
21574;BME280;10948;48.706;9.258;2023-04-30T09:55:30;98036.16;;;19.20;50.39
21574;BME280;10948;48.706;9.258;2023-04-30T09:57:56;98032.91;;;18.98;51.02
21574;BME280;10948;48.706;9.258;2023-04-30T10:00:21;98036.94;;;19.68;50.13
21574;BME280;10948;48.706;9.258;2023-04-30T10:02:47;98029.13;;;19.86;49.64
21574;BME280;10948;48.706;9.258;2023-04-30T10:05:13;98027.91;;;20.26;49.37
21574;BME280;10948;48.706;9.258;2023-04-30T10:07:39;98024.63;;;20.05;49.43
21574;BME280;10948;48.706;9.258;2023-04-30T10:10:09;98031.91;;;19.84;49.88
21574;BME280;10948;48.706;9.258;2023-04-30T10:12:46;98027.22;;;19.59;50.01
21574;BME280;10948;48.706;9.258;2023-04-30T10:15:28;98026.97;;;19.34;50.13
21574;BME280;10948;48.706;9.258;2023-04-30T10:18:06;98036.16;;;18.71;49.91
21574;BME280;10948;48.706;9.258;2023-04-30T10:20:34;98021.63;;;18.96;50.23
21574;BME280;10948;48.706;9.258;2023-04-30T10:22:59;98025.00;;;19.26;50.13
21574;BME280;10948;48.706;9.258;2023-04-30T10:25:25;98015.78;;;19.78;49.48
21574;BME280;10948;48.706;9.258;2023-04-30T10:27:52;98018.03;;;18.97;49.28
21574;BME280;10948;48.706;9.258;2023-04-30T10:30:17;98023.88;;;19.57;49.37
21574;BME280;10948;48.706;9.258;2023-04-30T10:33:26;98027.75;;;19.06;49.34
21574;BME280;10948;48.706;9.258;2023-04-30T10:35:35;98023.31;;;19.16;49.10
21574;BME280;10948;48.706;9.258;2023-04-30T10:41:04;98027.22;;;19.02;47.90
21574;BME280;10948;48.706;9.258;2023-04-30T10:43:30;98022.50;;;19.06;47.57
21574;BME280;10948;48.706;9.258;2023-04-30T10:45:56;98021.66;;;19.15;48.23
21574;BME280;10948;48.706;9.258;2023-04-30T10:48:21;98012.75;;;18.87;48.52
21574;BME280;10948;48.706;9.258;2023-04-30T10:50:51;98014.28;;;18.99;49.07
21574;BME280;10948;48.706;9.258;2023-04-30T10:53:17;98013.31;;;19.00;48.53
21574;BME280;10948;48.706;9.258;2023-04-30T10:55:44;98011.63;;;18.90;48.21
21574;BME280;10948;48.706;9.258;2023-04-30T10:58:22;98002.94;;;19.27;47.74
21574;BME280;10948;48.706;9.258;2023-04-30T11:00:50;98010.88;;;19.27;48.12
21574;BME280;10948;48.706;9.258;2023-04-30T11:03:15;98005.59;;;19.27;47.50
21574;BME280;10948;48.706;9.258;2023-04-30T11:05:41;98010.88;;;19.37;48.22
21574;BME280;10948;48.706;9.258;2023-04-30T11:08:10;98005.78;;;18.86;47.75
21574;BME280;10948;48.706;9.258;2023-04-30T11:10:36;97999.56;;;19.16;47.79
21574;BME280;10948;48.706;9.258;2023-04-30T11:13:05;97998.59;;;19.45;47.12
21574;BME280;10948;48.706;9.258;2023-04-30T11:15:32;97998.88;;;19.04;47.52
21574;BME280;10948;48.706;9.258;2023-04-30T11:17:58;97990.53;;;18.80;49.97
21574;BME280;10948;48.706;9.258;2023-04-30T11:20:24;97998.88;;;19.04;48.84
21574;BME280;10948;48.706;9.258;2023-04-30T11:23:08;97990.38;;;18.91;49.59
21574;BME280;10948;48.706;9.258;2023-04-30T11:25:43;97997.03;;;18.76;48.87
21574;BME280;10948;48.706;9.258;2023-04-30T11:28:16;97993.72;;;18.74;48.86
21574;BME280;10948;48.706;9.258;2023-04-30T11:30:54;97989.38;;;18.73;48.88
21574;BME280;10948;48.706;9.258;2023-04-30T11:33:20;97990.09;;;18.66;49.29
21574;BME280;10948;48.706;9.258;2023-04-30T11:35:46;97987.75;;;18.91;49.54
21574;BME280;10948;48.706;9.258;2023-04-30T11:38:13;97990.84;;;19.34;49.18
21574;BME280;10948;48.706;9.258;2023-04-30T11:40:39;97991.38;;;19.09;47.98
21574;BME280;10948;48.706;9.258;2023-04-30T11:43:04;97983.59;;;19.55;47.54
21574;BME280;10948;48.706;9.258;2023-04-30T11:45:30;97974.06;;;19.81;47.46
21574;BME280;10948;48.706;9.258;2023-04-30T11:47:55;97980.66;;;20.04;47.20
21574;BME280;10948;48.706;9.258;2023-04-30T11:50:22;97981.09;;;19.16;47.47
21574;BME280;10948;48.706;9.258;2023-04-30T11:52:57;97976.22;;;19.59;47.10
21574;BME280;10948;48.706;9.258;2023-04-30T11:55:23;97977.19;;;19.58;47.25
21574;BME280;10948;48.706;9.258;2023-04-30T11:57:50;97975.44;;;19.85;47.47
21574;BME280;10948;48.706;9.258;2023-04-30T12:00:16;97969.47;;;20.29;46.71
21574;BME280;10948;48.706;9.258;2023-04-30T12:02:42;97968.94;;;20.70;46.20
21574;BME280;10948;48.706;9.258;2023-04-30T12:05:12;97960.13;;;20.52;45.93
21574;BME280;10948;48.706;9.258;2023-04-30T12:07:38;97961.34;;;20.40;45.65
21574;BME280;10948;48.706;9.258;2023-04-30T12:10:04;97957.69;;;20.68;46.58
21574;BME280;10948;48.706;9.258;2023-04-30T12:12:30;97959.25;;;20.61;46.59
21574;BME280;10948;48.706;9.258;2023-04-30T12:14:56;97953.34;;;20.23;46.37
21574;BME280;10948;48.706;9.258;2023-04-30T12:17:34;97955.81;;;20.51;45.96
21574;BME280;10948;48.706;9.258;2023-04-30T12:19:59;97959.38;;;20.42;46.51
21574;BME280;10948;48.706;9.258;2023-04-30T12:22:25;97959.06;;;19.72;46.75
21574;BME280;10948;48.706;9.258;2023-04-30T12:24:50;97959.75;;;19.84;47.22
21574;BME280;10948;48.706;9.258;2023-04-30T12:27:15;97958.28;;;20.80;46.47
21574;BME280;10948;48.706;9.258;2023-04-30T12:29:45;97964.94;;;20.66;46.32
21574;BME280;10948;48.706;9.258;2023-04-30T12:32:11;97950.88;;;20.21;46.11
21574;BME280;10948;48.706;9.258;2023-04-30T12:34:40;97961.13;;;20.24;46.14
21574;BME280;10948;48.706;9.258;2023-04-30T12:37:05;97961.78;;;20.80;47.04
21574;BME280;10948;48.706;9.258;2023-04-30T12:39:32;97957.59;;;20.60;46.73
21574;BME280;10948;48.706;9.258;2023-04-30T12:41:58;97961.44;;;20.66;46.41
21574;BME280;10948;48.706;9.258;2023-04-30T12:44:24;97966.31;;;20.43;47.01
21574;BME280;10948;48.706;9.258;2023-04-30T12:46:52;97963.38;;;20.19;48.03
21574;BME280;10948;48.706;9.258;2023-04-30T12:49:23;97956.19;;;21.18;46.65
21574;BME280;10948;48.706;9.258;2023-04-30T12:51:50;97952.09;;;20.89;45.64
21574;BME280;10948;48.706;9.258;2023-04-30T12:54:23;97945.25;;;21.13;46.75
21574;BME280;10948;48.706;9.258;2023-04-30T12:56:58;97947.03;;;21.30;46.30
21574;BME280;10948;48.706;9.258;2023-04-30T12:59:25;97936.41;;;21.05;46.03
21574;BME280;10948;48.706;9.258;2023-04-30T13:01:50;97939.16;;;20.68;45.98
21574;BME280;10948;48.706;9.258;2023-04-30T13:04:16;97932.63;;;20.63;45.69
21574;BME280;10948;48.706;9.258;2023-04-30T13:06:41;97926.50;;;21.32;45.51
21574;BME280;10948;48.706;9.258;2023-04-30T13:09:06;97924.38;;;21.36;44.90
21574;BME280;10948;48.706;9.258;2023-04-30T13:11:31;97932.44;;;21.26;45.00